createdAt,value
2023-03-11T00:00:22.775Z,55.00
2023-03-11T00:02:49.956Z,54.35
2023-03-11T00:05:23.981Z,53.87
2023-03-11T00:07:50.989Z,55.02
2023-03-11T00:10:25.425Z,55.26
2023-03-11T00:12:51.972Z,54.85
2023-03-11T00:15:18.980Z,54.89
2023-03-11T00:17:47.098Z,55.36
2023-03-11T00:20:22.968Z,55.70
2023-03-11T00:22:50.983Z,55.34
2023-03-11T00:25:18.474Z,55.10
2023-03-11T00:27:45.047Z,55.61
2023-03-11T00:30:13.096Z,54.98
2023-03-11T00:32:40.170Z,54.68
2023-03-11T00:35:07.399Z,55.08
2023-03-11T00:37:34.019Z,54.31
2023-03-11T00:40:00.558Z,54.01
2023-03-11T00:42:26.911Z,54.57
2023-03-11T00:44:53.485Z,54.54
2023-03-11T00:47:20.027Z,54.29
2023-03-11T00:49:46.498Z,54.08
2023-03-11T00:52:13.129Z,53.59
2023-03-11T00:54:39.530Z,53.34
2023-03-11T00:57:06.105Z,52.80
2023-03-11T00:59:34.708Z,53.80
2023-03-11T01:02:01.080Z,53.28
2023-03-11T01:04:27.520Z,53.58
2023-03-11T01:06:53.931Z,53.47
2023-03-11T01:09:20.374Z,53.54
2023-03-11T01:11:46.900Z,52.45
2023-03-11T01:14:13.419Z,53.08
2023-03-11T01:16:39.785Z,52.57
2023-03-11T01:19:06.175Z,53.61
2023-03-11T01:21:32.667Z,54.24
2023-03-11T01:23:59.154Z,53.66
2023-03-11T01:26:25.532Z,53.74
2023-03-11T01:28:52.054Z,52.80
2023-03-11T01:31:18.606Z,53.27
2023-03-11T01:33:45.346Z,53.91
2023-03-11T01:36:11.808Z,53.24
2023-03-11T01:38:38.295Z,53.79
2023-03-11T01:41:06.387Z,53.90
2023-03-11T01:43:44.945Z,53.73
2023-03-11T01:46:28.157Z,53.63
2023-03-11T01:48:56.963Z,53.16
2023-03-11T01:51:35.702Z,53.31
2023-03-11T01:54:07.456Z,54.66
2023-03-11T01:56:35.248Z,54.78
2023-03-11T01:59:01.877Z,54.16
2023-03-11T02:01:28.962Z,54.34
2023-03-11T02:03:57.715Z,54.42
2023-03-11T02:06:25.649Z,54.27
2023-03-11T02:08:52.737Z,54.80
2023-03-11T02:11:26.347Z,55.28
2023-03-11T02:13:56.960Z,55.13
2023-03-11T02:16:23.462Z,54.47
2023-03-11T02:18:49.948Z,54.09
2023-03-11T02:21:24.979Z,53.77
2023-03-11T02:24:17.284Z,53.61
2023-03-11T02:27:06.353Z,54.03
2023-03-11T02:29:34.351Z,54.13
2023-03-11T02:32:08.893Z,54.35
2023-03-11T02:34:38.087Z,54.17
2023-03-11T02:37:06.722Z,54.27
2023-03-11T02:39:35.534Z,54.08
2023-03-11T02:42:10.625Z,55.19
2023-03-11T02:44:38.389Z,53.88
2023-03-11T02:47:05.404Z,54.85
2023-03-11T02:49:32.632Z,54.19
2023-03-11T02:51:58.968Z,53.72
2023-03-11T02:54:25.450Z,53.42
2023-03-11T02:56:51.924Z,53.73
2023-03-11T02:59:18.363Z,53.49
2023-03-11T03:01:44.884Z,53.75
2023-03-11T03:04:11.533Z,53.46
2023-03-11T03:06:38.012Z,53.80
2023-03-11T03:09:04.846Z,54.27
2023-03-11T03:11:31.526Z,53.87
2023-03-11T03:13:57.904Z,54.18
2023-03-11T03:16:24.449Z,53.96
2023-03-11T03:18:52.344Z,54.08
2023-03-11T03:21:18.723Z,54.07
2023-03-11T03:23:45.115Z,53.97
2023-03-11T03:26:14.249Z,54.76
2023-03-11T03:28:40.793Z,54.44
2023-03-11T03:31:11.724Z,54.13
2023-03-11T03:33:38.647Z,55.02
2023-03-11T03:36:11.013Z,55.39
2023-03-11T03:38:37.599Z,55.27
2023-03-11T03:41:04.232Z,55.72
2023-03-11T03:43:30.935Z,55.20
2023-03-11T03:45:59.916Z,54.59
2023-03-11T03:48:27.260Z,54.19
2023-03-11T03:50:54.022Z,53.86
2023-03-11T03:53:21.152Z,54.71
2023-03-11T03:55:47.761Z,55.29
2023-03-11T03:58:14.229Z,55.46
2023-03-11T04:00:40.593Z,54.70
2023-03-11T04:03:07.194Z,55.56
2023-03-11T04:05:33.848Z,55.90
2023-03-11T04:08:00.635Z,55.26
2023-03-11T04:10:27.378Z,55.16
2023-03-11T04:12:53.756Z,54.92
2023-03-11T04:15:20.292Z,55.27
2023-03-11T04:17:46.726Z,55.63
2023-03-11T04:20:13.162Z,55.19
2023-03-11T04:22:39.567Z,55.85
2023-03-11T04:25:06.553Z,55.56
2023-03-11T04:27:33.056Z,55.32
2023-03-11T04:29:59.477Z,56.12
2023-03-11T04:32:25.946Z,56.05
2023-03-11T04:34:52.415Z,57.00
2023-03-11T04:37:18.815Z,56.85
2023-03-11T04:39:45.218Z,56.53
2023-03-11T04:42:13.957Z,57.22
2023-03-11T04:44:40.387Z,57.76
2023-03-11T04:47:06.808Z,58.49
2023-03-11T04:49:33.244Z,58.23
2023-03-11T04:51:59.586Z,58.55
2023-03-11T04:54:26.127Z,58.42
2023-03-11T04:56:52.491Z,58.32
2023-03-11T04:59:18.958Z,58.14
2023-03-11T05:01:45.463Z,58.34
2023-03-11T05:04:12.873Z,57.82
2023-03-11T05:06:39.442Z,57.19
2023-03-11T05:09:05.925Z,57.66
2023-03-11T05:11:32.276Z,57.43
2023-03-11T05:13:58.785Z,57.65
2023-03-11T05:16:25.342Z,57.94
2023-03-11T05:18:51.783Z,58.51
2023-03-11T05:21:18.124Z,57.73
2023-03-11T05:23:45.498Z,57.82
2023-03-11T05:26:12.399Z,57.33
2023-03-11T05:28:38.906Z,56.79
2023-03-11T05:31:11.038Z,56.77
2023-03-11T05:33:37.567Z,55.35
2023-03-11T05:36:07.473Z,55.46
2023-03-11T05:38:34.948Z,55.02
2023-03-11T05:41:01.652Z,55.14
2023-03-11T05:43:28.281Z,55.31
2023-03-11T05:45:54.903Z,55.03
2023-03-11T05:48:21.309Z,54.88
2023-03-11T05:50:47.702Z,55.06
2023-03-11T05:53:14.052Z,54.84
2023-03-11T05:55:40.395Z,54.91
2023-03-11T05:58:06.879Z,55.04
2023-03-11T06:00:33.401Z,54.94
2023-03-11T06:02:59.824Z,55.14
2023-03-11T06:05:26.248Z,54.81
2023-03-11T06:07:53.234Z,55.17
2023-03-11T06:10:19.708Z,54.81
2023-03-11T06:12:46.045Z,53.97
2023-03-11T06:15:12.416Z,53.83
2023-03-11T06:17:38.804Z,54.40
2023-03-11T06:20:06.114Z,54.76
2023-03-11T06:22:32.486Z,53.93
2023-03-11T06:24:58.854Z,53.92
2023-03-11T06:27:25.354Z,52.46
2023-03-11T06:29:53.529Z,52.88
2023-03-11T06:32:19.968Z,52.06
2023-03-11T06:34:51.592Z,51.32
2023-03-11T06:37:18.447Z,51.15
2023-03-11T06:39:44.808Z,50.90
2023-03-11T06:42:11.548Z,50.72
2023-03-11T06:44:38.285Z,50.67
2023-03-11T06:47:04.845Z,49.24
2023-03-11T06:49:31.298Z,49.57
2023-03-11T06:51:57.655Z,48.86
2023-03-11T06:54:24.055Z,48.75
2023-03-11T06:56:50.456Z,48.57
2023-03-11T06:59:17.085Z,46.29
2023-03-11T07:01:43.667Z,45.99
2023-03-11T07:04:10.509Z,46.26
2023-03-11T07:06:37.016Z,46.28
2023-03-11T07:09:03.474Z,45.89
2023-03-11T07:11:29.871Z,46.79
2023-03-11T07:13:56.372Z,46.77
2023-03-11T07:16:25.643Z,45.77
2023-03-11T07:18:54.433Z,46.31
2023-03-11T07:21:22.376Z,46.21
2023-03-11T07:23:53.286Z,45.34
2023-03-11T07:26:20.144Z,45.68
2023-03-11T07:28:46.995Z,45.41
2023-03-11T07:31:16.743Z,44.73
2023-03-11T07:33:43.526Z,44.84
2023-03-11T07:36:15.888Z,44.29
2023-03-11T07:38:43.458Z,44.16
2023-03-11T07:41:11.751Z,45.06
2023-03-11T07:43:39.676Z,43.77
2023-03-11T07:46:13.808Z,42.60
2023-03-11T07:48:40.495Z,41.43
2023-03-11T07:51:16.324Z,40.85
2023-03-11T07:53:43.398Z,38.29
2023-03-11T07:56:11.753Z,36.48
2023-03-11T07:58:39.142Z,35.57
2023-03-11T08:01:16.007Z,35.27
2023-03-11T08:03:43.771Z,34.76
2023-03-11T08:06:20.673Z,36.46
2023-03-11T08:08:48.065Z,36.82
2023-03-11T08:11:15.646Z,35.82
2023-03-11T08:13:43.451Z,35.77
2023-03-11T08:16:12.209Z,37.71
2023-03-11T08:18:38.638Z,37.17
2023-03-11T08:21:09.678Z,36.96
2023-03-11T08:23:36.098Z,38.09
2023-03-11T08:26:07.228Z,39.01
2023-03-11T08:28:33.661Z,39.84
2023-03-11T08:31:00.281Z,39.92
2023-03-11T08:33:27.749Z,40.67
2023-03-11T08:35:54.845Z,40.32
2023-03-11T08:38:21.485Z,36.90
2023-03-11T08:40:48.122Z,32.47
2023-03-11T08:43:15.253Z,29.20
2023-03-11T08:45:43.013Z,26.95
2023-03-11T08:48:11.571Z,25.87
2023-03-11T08:50:53.386Z,24.35
2023-03-11T08:53:20.884Z,24.37
2023-03-11T08:55:47.242Z,23.37
2023-03-11T08:58:13.662Z,23.13
2023-03-11T09:00:40.178Z,23.55
2023-03-11T09:03:06.536Z,24.06
2023-03-11T09:05:33.026Z,25.16
2023-03-11T09:07:59.772Z,26.08
2023-03-11T09:10:26.375Z,27.61
2023-03-11T09:12:52.995Z,27.65
2023-03-11T09:15:20.318Z,30.48
2023-03-11T09:17:46.891Z,31.00
2023-03-11T09:20:14.440Z,32.25
2023-03-11T09:22:40.841Z,33.34
2023-03-11T09:25:07.907Z,32.87
2023-03-11T09:27:34.274Z,32.81
2023-03-11T09:30:00.730Z,32.71
2023-03-11T09:32:27.217Z,30.84
2023-03-11T09:34:53.812Z,31.24
2023-03-11T09:37:20.273Z,31.54
2023-03-11T09:39:46.663Z,32.19
2023-03-11T09:42:20.661Z,33.07
2023-03-11T09:44:52.961Z,33.73
2023-03-11T09:47:37.675Z,34.09
2023-03-11T09:50:25.130Z,32.56
2023-03-11T09:53:03.241Z,29.40
2023-03-11T09:55:38.136Z,28.92
2023-03-11T09:58:11.574Z,28.77
2023-03-11T10:00:38.004Z,29.34
2023-03-11T10:03:13.003Z,29.63
2023-03-11T10:05:42.178Z,30.15
2023-03-11T10:08:24.912Z,29.00
2023-03-11T10:11:03.732Z,29.32
2023-03-11T10:13:38.881Z,31.65
2023-03-11T10:16:20.410Z,30.54
2023-03-11T10:18:55.078Z,31.49
2023-03-11T10:21:35.790Z,31.41
2023-03-11T10:24:24.234Z,31.75
2023-03-11T10:26:57.796Z,30.68
2023-03-11T10:29:30.499Z,31.20
2023-03-11T10:32:34.944Z,31.48
2023-03-11T10:35:16.536Z,30.38
2023-03-11T10:37:58.281Z,30.46
2023-03-11T10:40:28.148Z,30.51
2023-03-11T10:42:58.771Z,30.69
2023-03-11T10:45:25.852Z,29.09
2023-03-11T10:47:52.248Z,29.53
2023-03-11T10:50:20.092Z,30.86
2023-03-11T10:53:04.698Z,31.40
2023-03-11T10:55:31.160Z,31.95
2023-03-11T10:58:11.752Z,33.80
2023-03-11T11:00:38.189Z,33.11
2023-03-11T11:03:06.616Z,32.68
2023-03-11T11:05:34.748Z,31.94
2023-03-11T11:08:16.961Z,34.67
2023-03-11T11:10:52.724Z,31.26
2023-03-11T11:13:21.949Z,29.87
2023-03-11T11:15:57.573Z,31.40
2023-03-11T11:18:48.810Z,32.79
2023-03-11T11:21:27.480Z,31.69
2023-03-11T11:24:23.673Z,31.73
2023-03-11T11:27:11.522Z,32.08
2023-03-11T11:29:38.108Z,30.77
2023-03-11T11:32:19.156Z,30.01
2023-03-11T11:35:05.098Z,30.50
2023-03-11T11:37:35.035Z,31.42
2023-03-11T11:40:15.822Z,32.92
2023-03-11T11:43:07.306Z,33.95
2023-03-11T11:45:40.801Z,33.04
2023-03-11T11:48:22.705Z,32.28
2023-03-11T11:50:53.743Z,34.11
2023-03-11T11:53:38.574Z,31.43
2023-03-11T11:56:05.149Z,30.85
2023-03-11T11:58:31.675Z,30.55
2023-03-11T12:01:33.691Z,29.31
2023-03-11T12:04:25.257Z,30.24
2023-03-11T12:07:00.451Z,30.19
2023-03-11T12:09:38.021Z,30.34
2023-03-11T12:12:37.918Z,24.97
2023-03-11T12:15:39.841Z,26.39
2023-03-11T12:18:14.069Z,28.05
2023-03-11T12:20:47.158Z,27.87
2023-03-11T12:23:23.339Z,26.87
2023-03-11T12:25:52.577Z,28.84
2023-03-11T12:28:38.034Z,28.62
2023-03-11T12:31:09.599Z,29.58
2023-03-11T12:33:40.396Z,28.80
2023-03-11T12:36:20.629Z,28.56
2023-03-11T12:38:48.874Z,28.69
2023-03-11T12:41:15.303Z,28.67
2023-03-11T12:43:41.629Z,28.10
2023-03-11T12:46:08.968Z,28.76
2023-03-11T12:48:52.651Z,27.42
2023-03-11T12:51:34.264Z,28.83
2023-03-11T12:54:29.548Z,28.45
2023-03-11T12:56:59.899Z,29.44
2023-03-11T12:59:56.967Z,28.79
2023-03-11T13:02:42.227Z,28.18
2023-03-11T13:05:30.327Z,30.27
2023-03-11T13:07:57.132Z,30.08
2023-03-11T13:10:44.147Z,28.06
2023-03-11T13:13:33.503Z,30.28
2023-03-11T13:16:15.296Z,29.03
2023-03-11T13:18:43.714Z,29.49
2023-03-11T13:21:28.461Z,29.72
2023-03-11T13:24:22.790Z,29.49
2023-03-11T13:27:04.897Z,27.21
2023-03-11T13:30:01.152Z,27.69
2023-03-11T13:33:05.056Z,28.33
2023-03-11T13:36:02.693Z,28.60
2023-03-11T13:39:00.891Z,28.55
2023-03-11T13:41:34.744Z,28.21
2023-03-11T13:44:13.633Z,28.10
2023-03-11T13:46:42.707Z,29.16
2023-03-11T13:49:24.047Z,28.95
2023-03-11T13:51:51.208Z,29.68
2023-03-11T13:54:19.865Z,29.66
2023-03-11T13:56:54.159Z,29.17
2023-03-11T13:59:27.274Z,29.00
2023-03-11T14:01:57.344Z,28.68
2023-03-11T14:04:33.630Z,28.27
2023-03-11T14:07:00.597Z,28.98
2023-03-11T14:09:28.496Z,28.97
2023-03-11T14:12:03.185Z,29.57
2023-03-11T14:14:51.690Z,29.75
2023-03-11T14:17:19.623Z,28.83
2023-03-11T14:20:25.463Z,29.52
2023-03-11T14:22:53.995Z,30.08
2023-03-11T14:25:28.452Z,29.64
2023-03-11T14:27:56.314Z,29.71
2023-03-11T14:30:29.038Z,28.75
2023-03-11T14:32:58.409Z,30.08
2023-03-11T14:35:25.051Z,30.28
2023-03-11T14:37:52.122Z,29.94
2023-03-11T14:40:27.460Z,30.04
2023-03-11T14:42:57.263Z,30.80
2023-03-11T14:45:26.029Z,30.26
2023-03-11T14:48:09.518Z,30.03
2023-03-11T14:50:36.333Z,30.30
2023-03-11T14:53:15.337Z,30.43
2023-03-11T14:55:53.658Z,31.27
2023-03-11T14:58:36.958Z,31.12
2023-03-11T15:01:11.113Z,30.29
2023-03-11T15:03:48.094Z,30.61
2023-03-11T15:06:17.548Z,29.83
2023-03-11T15:08:44.170Z,30.26
2023-03-11T15:11:11.893Z,30.37
2023-03-11T15:13:41.250Z,30.23
2023-03-11T15:16:22.591Z,30.16
2023-03-11T15:18:49.242Z,30.38
2023-03-11T15:21:22.029Z,30.09
2023-03-11T15:23:57.309Z,30.29
2023-03-11T15:26:27.826Z,30.32
2023-03-11T15:29:02.125Z,29.90
2023-03-11T15:31:32.387Z,30.67
2023-03-11T15:34:10.478Z,29.71
2023-03-11T15:36:39.852Z,29.72
2023-03-11T15:39:07.245Z,29.65
2023-03-11T15:41:33.680Z,29.61
2023-03-11T15:44:03.017Z,29.71
2023-03-11T15:46:29.812Z,30.20
2023-03-11T15:48:56.308Z,30.40
2023-03-11T15:51:22.675Z,30.71
2023-03-11T15:53:49.079Z,31.03
2023-03-11T15:56:24.263Z,30.63
2023-03-11T15:58:50.755Z,30.53
2023-03-11T16:01:18.366Z,30.61
2023-03-11T16:03:44.829Z,31.06
2023-03-11T16:06:11.308Z,30.54
2023-03-11T16:08:37.690Z,31.37
2023-03-11T16:11:04.198Z,32.13
2023-03-11T16:13:30.560Z,32.39
2023-03-11T16:15:56.948Z,32.02
2023-03-11T16:18:23.452Z,32.28
2023-03-11T16:20:52.232Z,32.98
2023-03-11T16:23:25.233Z,32.84
2023-03-11T16:25:56.333Z,33.16
2023-03-11T16:28:22.785Z,33.38
2023-03-11T16:30:52.097Z,33.43
2023-03-11T16:33:18.721Z,33.79
2023-03-11T16:35:45.902Z,33.08
2023-03-11T16:38:12.841Z,33.83
2023-03-11T16:40:39.425Z,34.32
2023-03-11T16:43:10.306Z,35.36
2023-03-11T16:45:37.217Z,35.98
2023-03-11T16:48:05.511Z,36.35
2023-03-11T16:50:33.771Z,36.37
2023-03-11T16:53:00.706Z,36.68
2023-03-11T16:55:27.845Z,37.43
2023-03-11T16:57:56.180Z,37.24
2023-03-11T17:00:23.950Z,37.55
2023-03-11T17:02:50.888Z,37.83
2023-03-11T17:05:17.558Z,37.32
2023-03-11T17:07:43.971Z,37.96
2023-03-11T17:10:11.845Z,37.66
2023-03-11T17:12:38.571Z,38.27
2023-03-11T17:15:06.557Z,38.22
2023-03-11T17:17:33.190Z,39.03
2023-03-11T17:19:59.564Z,39.68
2023-03-11T17:22:25.894Z,38.99
2023-03-11T17:24:52.703Z,39.68
2023-03-11T17:27:19.411Z,39.46
2023-03-11T17:29:45.840Z,39.90
2023-03-11T17:32:17.216Z,40.38
2023-03-11T17:34:43.887Z,39.94
2023-03-11T17:37:10.333Z,40.02
2023-03-11T17:39:36.721Z,40.78
2023-03-11T17:42:03.175Z,40.93
2023-03-11T17:44:37.820Z,40.99
2023-03-11T17:47:11.120Z,41.19
2023-03-11T17:49:37.748Z,41.23
2023-03-11T17:52:04.409Z,41.36
2023-03-11T17:54:30.834Z,41.70
2023-03-11T17:56:57.270Z,41.45
2023-03-11T17:59:23.657Z,41.66
2023-03-11T18:01:50.070Z,41.55
2023-03-11T18:04:16.495Z,41.67
2023-03-11T18:06:43.293Z,42.38
2023-03-11T18:09:09.715Z,42.50
2023-03-11T18:11:36.224Z,42.17
2023-03-11T18:14:02.759Z,42.34
2023-03-11T18:16:31.725Z,42.56
2023-03-11T18:18:58.239Z,42.60
2023-03-11T18:21:27.663Z,43.19
2023-03-11T18:24:00.893Z,43.26
2023-03-11T18:26:29.166Z,43.73
2023-03-11T18:28:56.409Z,43.72
2023-03-11T18:31:24.715Z,43.89
2023-03-11T18:33:54.266Z,44.02
2023-03-11T18:36:41.718Z,44.46
2023-03-11T18:39:12.558Z,44.35
2023-03-11T18:41:39.999Z,44.84
2023-03-11T18:44:07.010Z,44.32
2023-03-11T18:46:33.542Z,44.64
2023-03-11T18:49:01.720Z,44.74
2023-03-11T18:51:29.240Z,45.31
2023-03-11T18:53:56.151Z,45.47
2023-03-11T18:56:22.672Z,45.46
2023-03-11T18:58:49.368Z,45.69
2023-03-11T19:01:20.560Z,45.90
2023-03-11T19:04:05.308Z,45.44
2023-03-11T19:06:31.711Z,45.30
2023-03-11T19:09:00.021Z,45.75
2023-03-11T19:11:26.487Z,46.13
2023-03-11T19:13:52.900Z,46.55
2023-03-11T19:16:22.903Z,47.93
2023-03-11T19:18:50.283Z,48.42
2023-03-11T19:21:17.989Z,48.73
2023-03-11T19:23:45.286Z,49.24
2023-03-11T19:26:12.517Z,50.04
2023-03-11T19:28:38.959Z,50.39
2023-03-11T19:31:05.763Z,50.52
2023-03-11T19:33:34.504Z,50.04
2023-03-11T19:36:02.967Z,50.15
2023-03-11T19:38:29.811Z,50.52
2023-03-11T19:41:04.104Z,50.71
2023-03-11T19:43:30.579Z,51.03
2023-03-11T19:45:57.244Z,50.56
2023-03-11T19:48:24.173Z,51.60
2023-03-11T19:50:51.708Z,50.74
2023-03-11T19:53:19.789Z,51.49
2023-03-11T19:55:51.614Z,51.46
2023-03-11T19:58:18.372Z,51.59
2023-03-11T20:00:45.611Z,51.63
2023-03-11T20:03:13.181Z,51.92
2023-03-11T20:05:42.235Z,51.85
2023-03-11T20:08:10.295Z,52.00
2023-03-11T20:10:45.529Z,51.72
2023-03-11T20:13:12.714Z,52.23
2023-03-11T20:15:39.350Z,52.41
2023-03-11T20:18:09.034Z,52.85
2023-03-11T20:20:38.236Z,52.82
2023-03-11T20:23:05.069Z,53.21
2023-03-11T20:25:32.424Z,52.95
2023-03-11T20:28:00.558Z,52.49
2023-03-11T20:30:28.126Z,53.04
2023-03-11T20:32:55.046Z,52.84
2023-03-11T20:35:22.031Z,53.02
2023-03-11T20:37:48.797Z,52.83
2023-03-11T20:40:17.643Z,53.56
2023-03-11T20:42:46.954Z,53.63
2023-03-11T20:45:17.720Z,54.10
2023-03-11T20:47:45.651Z,54.02
2023-03-11T20:50:12.931Z,53.93
2023-03-11T20:52:42.292Z,54.10
2023-03-11T20:55:10.119Z,54.58
2023-03-11T20:57:38.118Z,54.34
2023-03-11T21:00:10.698Z,54.77
2023-03-11T21:02:42.458Z,54.54
2023-03-11T21:05:11.492Z,54.72
2023-03-11T21:07:38.281Z,54.28
2023-03-11T21:10:08.082Z,54.19
2023-03-11T21:12:34.610Z,54.41
2023-03-11T21:15:01.214Z,54.63
2023-03-11T21:17:27.652Z,54.84
2023-03-11T21:19:54.121Z,55.43
2023-03-11T21:22:20.715Z,55.45
2023-03-11T21:24:52.138Z,55.06
2023-03-11T21:27:20.895Z,55.96
2023-03-11T21:29:47.511Z,56.33
2023-03-11T21:32:14.324Z,56.34
2023-03-11T21:34:42.056Z,56.60
2023-03-11T21:37:08.530Z,57.35
2023-03-11T21:39:34.942Z,57.43
2023-03-11T21:42:02.474Z,57.12
2023-03-11T21:44:29.026Z,57.24
2023-03-11T21:46:55.664Z,57.89
2023-03-11T21:49:22.304Z,57.85
2023-03-11T21:51:49.041Z,58.21
2023-03-11T21:54:15.950Z,57.95
2023-03-11T21:56:42.322Z,58.74
2023-03-11T21:59:08.876Z,58.83
2023-03-11T22:01:35.438Z,58.56
2023-03-11T22:04:02.938Z,59.52
2023-03-11T22:06:30.995Z,59.09
2023-03-11T22:08:57.700Z,59.57
2023-03-11T22:11:24.108Z,59.92
2023-03-11T22:13:52.570Z,59.59
2023-03-11T22:16:20.407Z,59.97
2023-03-11T22:18:47.409Z,60.31
2023-03-11T22:21:15.606Z,60.41
2023-03-11T22:23:42.938Z,60.07
2023-03-11T22:26:10.110Z,60.08
2023-03-11T22:28:36.856Z,59.66
2023-03-11T22:31:12.181Z,59.70
2023-03-11T22:33:38.987Z,59.60
2023-03-11T22:36:07.684Z,59.69
2023-03-11T22:38:34.275Z,60.76
2023-03-11T22:41:00.806Z,60.51
2023-03-11T22:43:27.497Z,60.48
2023-03-11T22:45:54.106Z,60.96
2023-03-11T22:48:20.735Z,60.82
2023-03-11T22:50:47.328Z,60.95
2023-03-11T22:53:15.119Z,61.01
2023-03-11T22:55:42.820Z,61.43
2023-03-11T22:58:09.912Z,61.89
2023-03-11T23:00:36.745Z,62.15
2023-03-11T23:03:03.784Z,61.87
2023-03-11T23:05:30.521Z,62.13
2023-03-11T23:07:56.890Z,61.84
2023-03-11T23:10:23.285Z,62.17
2023-03-11T23:12:49.722Z,61.99
2023-03-11T23:15:18.653Z,61.65
2023-03-11T23:17:45.053Z,61.99
2023-03-11T23:20:15.096Z,62.11
2023-03-11T23:22:41.975Z,61.71
2023-03-11T23:25:13.053Z,61.01
2023-03-11T23:27:39.756Z,60.74
2023-03-11T23:30:07.380Z,60.38
2023-03-11T23:32:34.001Z,60.57
2023-03-11T23:35:00.490Z,60.34
2023-03-11T23:37:26.924Z,60.01
2023-03-11T23:39:53.250Z,60.27
2023-03-11T23:42:25.816Z,59.97
2023-03-11T23:44:53.754Z,59.85
2023-03-11T23:47:20.466Z,60.06
2023-03-11T23:49:46.854Z,60.04
2023-03-11T23:52:13.352Z,59.98
2023-03-11T23:54:39.895Z,59.69
2023-03-11T23:57:06.325Z,60.34
2023-03-11T23:59:32.758Z,60.49
